Time;durP1;ratioP1;P1;durP2;ratioP2;P2;SDS_P1;SDS_P2;PMS_P1;PMS_P2;Temp;Humidity;BMP_temperature;BMP_pressure;BME280_temperature;BME280_humidity;BME280_pressure;Samples;Min_cycle;Max_cycle;Signal;HPM_P1;HPM_P2
2022/08/18 00:00:53;;;;;;;;;;;24.50;99.90;;;;;;5091109;28;19951;-77
2022/08/18 00:03:19;;;;;;;;;;;24.50;99.90;;;;;;5090114;28;19918;-77
2022/08/18 00:05:44;;;;;;;;;;;24.40;99.90;;;;;;5073229;28;20007;-77
2022/08/18 00:08:10;;;;;;;;;;;24.50;99.90;;;;;;5092820;28;19912;-78
2022/08/18 00:10:39;;;;;;;;;;;24.40;99.90;;;;;;5091120;28;19912;-75
2022/08/18 00:13:04;;;;;;;;;;;24.40;99.90;;;;;;5103141;28;19962;-77
2022/08/18 00:15:30;;;;;;;;;;;24.30;99.90;;;;;;5111742;28;20372;-76
2022/08/18 00:17:56;;;;;;;;;;;24.40;99.90;;;;;;5099492;28;20282;-76
2022/08/18 00:20:22;;;;;;;;;;;24.40;99.90;;;;;;5073025;28;20058;-76
2022/08/18 00:22:49;;;;;;;;;;;24.40;99.90;;;;;;5091405;28;19935;-75
2022/08/18 00:25:15;;;;;;;;;;;24.50;99.90;;;;;;5097692;28;20246;-75
2022/08/18 00:27:41;;;;;;;;;;;24.60;99.90;;;;;;5112348;28;20360;-77
2022/08/18 00:30:09;;;;;;;;;;;24.60;99.90;;;;;;5093895;28;19964;-76
2022/08/18 00:32:36;;;;;;;;;;;24.60;99.90;;;;;;5083820;28;20001;-76
2022/08/18 00:35:13;;;;;;;;;;;24.50;99.90;;;;;;5084471;28;19955;-77
2022/08/18 00:37:39;;;;;;;;;;;24.50;99.90;;;;;;5086234;28;21963;-77
2022/08/18 00:40:07;;;;;;;;;;;24.40;99.90;;;;;;5064876;28;19916;-78
2022/08/18 00:42:32;;;;;;;;;;;24.40;99.90;;;;;;5063391;28;19912;-77
2022/08/18 00:45:03;;;;;;;;;;;24.50;99.90;;;;;;5065650;28;19912;-79
2022/08/18 00:47:29;;;;;;;;;;;24.70;99.90;;;;;;5071569;28;19958;-77
2022/08/18 00:49:55;;;;;;;;;;;24.80;99.90;;;;;;5080918;28;19998;-76
2022/08/18 00:52:21;;;;;;;;;;;24.80;99.90;;;;;;5081444;28;20011;-77
2022/08/18 00:54:48;;;;;;;;;;;24.80;99.90;;;;;;5083334;28;20423;-75
2022/08/18 00:57:17;;;;;;;;;;;24.70;99.90;;;;;;5082325;28;20012;-74
2022/08/18 00:59:46;;;;;;;;;;;24.80;99.90;;;;;;5093425;28;19963;-75
2022/08/18 01:02:21;;;;;;;;;;;24.90;99.90;;;;;;5082666;28;19912;-75
2022/08/18 01:05:05;;;;;;;;;;;24.90;99.90;;;;;;5086543;28;19919;-77
2022/08/18 01:07:44;;;;;;;;;;;24.90;99.90;;;;;;5084327;28;19920;-76
2022/08/18 01:10:15;;;;;;;;;;;24.90;99.90;;;;;;5098780;28;19942;-76
2022/08/18 01:12:41;;;;;;;;;;;25.00;99.90;;;;;;5095461;28;20058;-76
2022/08/18 01:15:12;;;;;;;;;;;25.00;99.90;;;;;;5071307;28;20007;-76
2022/08/18 01:23:14;;;;;;;;;;;24.90;99.90;;;;;;5083164;28;19932;-75
2022/08/18 01:28:27;;;;;;;;;;;24.90;99.90;;;;;;5091637;28;19922;-77
2022/08/18 01:30:57;;;;;;;;;;;24.80;99.90;;;;;;5092325;28;20096;-76
2022/08/18 01:33:33;;;;;;;;;;;24.80;99.90;;;;;;5067703;28;19923;-77
2022/08/18 01:36:02;;;;;;;;;;;24.80;99.90;;;;;;5086955;28;20016;-77
2022/08/18 01:38:30;;;;;;;;;;;24.80;99.90;;;;;;5080486;28;19916;-76
2022/08/18 01:40:56;;;;;;;;;;;24.80;99.90;;;;;;5083925;28;19952;-75
2022/08/18 01:43:22;;;;;;;;;;;24.90;99.90;;;;;;5090481;28;19919;-76
2022/08/18 01:45:48;;;;;;;;;;;24.90;99.90;;;;;;5088963;28;19912;-75
2022/08/18 01:48:13;;;;;;;;;;;24.80;99.90;;;;;;5086475;28;20288;-76
2022/08/18 01:50:40;;;;;;;;;;;24.80;99.90;;;;;;5092187;28;19920;-76
2022/08/18 01:53:08;;;;;;;;;;;24.70;99.90;;;;;;5084182;28;19920;-77
2022/08/18 01:55:34;;;;;;;;;;;24.70;99.90;;;;;;5077194;28;19916;-77
2022/08/18 01:58:00;;;;;;;;;;;24.70;99.90;;;;;;5077080;28;19916;-75
2022/08/18 02:00:26;;;;;;;;;;;24.70;99.90;;;;;;5080618;28;20285;-78
2022/08/18 02:02:52;;;;;;;;;;;24.60;99.90;;;;;;5079433;28;19964;-76
2022/08/18 02:05:27;;;;;;;;;;;24.50;99.90;;;;;;5076762;28;20206;-76
2022/08/18 02:07:53;;;;;;;;;;;24.50;99.90;;;;;;5081041;28;19919;-76
2022/08/18 02:10:19;;;;;;;;;;;24.60;99.90;;;;;;5077403;28;20289;-77
2022/08/18 02:12:44;;;;;;;;;;;24.60;99.90;;;;;;5085769;28;19939;-76
2022/08/18 02:15:10;;;;;;;;;;;24.50;99.90;;;;;;5068776;28;20175;-75
2022/08/18 02:17:37;;;;;;;;;;;24.50;99.90;;;;;;5081945;28;19913;-77
2022/08/18 02:20:04;;;;;;;;;;;24.60;99.90;;;;;;5089327;28;19928;-78
2022/08/18 02:22:29;;;;;;;;;;;24.60;99.90;;;;;;5083574;28;20131;-76
2022/08/18 02:24:56;;;;;;;;;;;24.70;99.90;;;;;;5084881;28;20030;-77
2022/08/18 02:27:21;;;;;;;;;;;24.60;99.90;;;;;;5085182;28;19938;-76
2022/08/18 02:29:47;;;;;;;;;;;24.60;99.90;;;;;;5070900;28;20634;-76
2022/08/18 02:32:12;;;;;;;;;;;24.50;99.90;;;;;;5071092;28;19912;-76
2022/08/18 02:34:39;;;;;;;;;;;24.50;99.90;;;;;;5083481;28;19938;-76
2022/08/18 02:37:05;;;;;;;;;;;24.40;99.90;;;;;;5080666;28;20318;-77
2022/08/18 02:39:32;;;;;;;;;;;24.50;99.90;;;;;;5080126;28;19912;-77
2022/08/18 02:41:58;;;;;;;;;;;24.40;99.90;;;;;;5078205;28;19959;-77
2022/08/18 02:44:23;;;;;;;;;;;24.40;99.90;;;;;;5093579;28;19958;-77
2022/08/18 02:46:55;;;;;;;;;;;24.40;99.90;;;;;;5094964;28;20291;-77
2022/08/18 02:49:21;;;;;;;;;;;24.30;99.90;;;;;;5063909;28;19948;-77
2022/08/18 02:51:46;;;;;;;;;;;24.30;99.90;;;;;;5061125;28;20022;-76
2022/08/18 02:54:12;;;;;;;;;;;24.30;99.90;;;;;;5062538;28;20007;-76
2022/08/18 02:56:38;;;;;;;;;;;24.30;99.90;;;;;;5061576;28;20468;-77
2022/08/18 02:59:06;;;;;;;;;;;24.40;99.90;;;;;;5077394;28;19990;-77
2022/08/18 03:01:39;;;;;;;;;;;24.30;99.90;;;;;;5072956;28;19916;-76
2022/08/18 03:04:05;;;;;;;;;;;24.40;99.90;;;;;;5076778;28;21507;-77
2022/08/18 03:06:31;;;;;;;;;;;24.40;99.90;;;;;;5075734;28;19912;-76
2022/08/18 03:08:57;;;;;;;;;;;24.40;99.90;;;;;;5077365;28;19912;-76
2022/08/18 03:11:24;;;;;;;;;;;24.40;99.90;;;;;;5074505;28;19912;-77
2022/08/18 03:13:50;;;;;;;;;;;24.30;99.90;;;;;;5110838;27;20123;-78
2022/08/18 03:16:16;;;;;;;;;;;24.40;99.90;;;;;;5080477;28;20265;-78
2022/08/18 03:18:45;;;;;;;;;;;24.40;99.90;;;;;;5075662;28;20035;-77
2022/08/18 03:21:12;;;;;;;;;;;24.40;99.90;;;;;;5078310;28;19970;-76
2022/08/18 03:23:41;;;;;;;;;;;24.40;99.90;;;;;;5078921;28;19916;-76
2022/08/18 03:26:10;;;;;;;;;;;24.40;99.90;;;;;;5079379;28;20277;-77
2022/08/18 03:28:40;;;;;;;;;;;24.30;99.90;;;;;;5062522;28;20007;-76
2022/08/18 03:31:07;;;;;;;;;;;24.40;99.90;;;;;;5065799;28;20011;-76
2022/08/18 03:33:32;;;;;;;;;;;24.40;99.90;;;;;;5079867;28;20386;-75
2022/08/18 03:36:10;;;;;;;;;;;24.30;99.90;;;;;;5055866;28;19926;-76
2022/08/18 03:38:37;;;;;;;;;;;24.30;99.90;;;;;;5081508;28;20259;-76
2022/08/18 03:41:02;;;;;;;;;;;24.40;99.90;;;;;;5074648;28;20273;-75
2022/08/18 03:43:30;;;;;;;;;;;24.40;99.90;;;;;;5082141;28;19958;-75
2022/08/18 03:45:59;;;;;;;;;;;24.40;99.90;;;;;;5060682;28;19912;-76
2022/08/18 03:48:24;;;;;;;;;;;24.40;99.90;;;;;;5073398;28;19912;-77
2022/08/18 03:50:50;;;;;;;;;;;24.40;99.90;;;;;;5081551;28;19912;-77
2022/08/18 03:53:16;;;;;;;;;;;24.50;99.90;;;;;;5060099;28;20171;-76
2022/08/18 03:55:41;;;;;;;;;;;24.60;99.90;;;;;;5094180;28;19942;-78
2022/08/18 03:58:07;;;;;;;;;;;24.60;99.90;;;;;;5080580;28;19994;-76
2022/08/18 04:00:37;;;;;;;;;;;24.60;99.90;;;;;;5079260;28;20496;-75
2022/08/18 04:03:04;;;;;;;;;;;24.60;99.90;;;;;;5077854;28;19938;-76
2022/08/18 04:05:29;;;;;;;;;;;24.50;99.90;;;;;;5084225;28;19912;-75
2022/08/18 04:07:56;;;;;;;;;;;24.50;99.90;;;;;;5082339;28;19924;-74
2022/08/18 04:10:22;;;;;;;;;;;24.50;99.90;;;;;;5085882;28;20431;-75
2022/08/18 04:12:47;;;;;;;;;;;24.60;99.90;;;;;;5080939;28;19916;-75
2022/08/18 04:15:13;;;;;;;;;;;24.60;99.90;;;;;;5081531;28;19920;-75
2022/08/18 04:17:39;;;;;;;;;;;24.60;99.90;;;;;;5080959;28;20043;-78
2022/08/18 04:20:05;;;;;;;;;;;24.60;99.90;;;;;;5086611;28;19915;-77
2022/08/18 04:22:32;;;;;;;;;;;24.60;99.90;;;;;;5082930;28;19916;-80
2022/08/18 04:24:59;;;;;;;;;;;24.60;99.90;;;;;;5070798;28;19912;-76
2022/08/18 04:27:26;;;;;;;;;;;24.60;99.90;;;;;;5081722;28;20238;-75
2022/08/18 04:29:52;;;;;;;;;;;24.60;99.90;;;;;;5084017;28;20305;-75
2022/08/18 04:32:18;;;;;;;;;;;24.60;99.90;;;;;;5081644;28;19965;-75
2022/08/18 04:34:44;;;;;;;;;;;24.60;99.90;;;;;;5084189;28;19920;-75
2022/08/18 04:37:09;;;;;;;;;;;24.60;99.90;;;;;;5100568;27;20205;-74
2022/08/18 04:39:36;;;;;;;;;;;24.70;99.90;;;;;;5082544;28;19959;-74
2022/08/18 04:42:02;;;;;;;;;;;24.70;99.90;;;;;;5079776;28;20357;-75
2022/08/18 04:44:28;;;;;;;;;;;24.80;99.90;;;;;;5082972;28;19920;-76
2022/08/18 04:46:53;;;;;;;;;;;24.90;99.90;;;;;;5083435;28;19912;-77
2022/08/18 04:49:21;;;;;;;;;;;24.90;99.90;;;;;;5061419;28;20161;-77
2022/08/18 04:53:43;;;;;;;;;;;24.80;99.90;;;;;;5080926;28;20085;-77
2022/08/18 04:54:37;;;;;;;;;;;24.90;99.90;;;;;;5075376;28;19912;-75
2022/08/18 04:57:13;;;;;;;;;;;25.00;99.90;;;;;;5086211;28;19924;-76
2022/08/18 04:59:40;;;;;;;;;;;24.90;99.90;;;;;;5080466;28;19927;-76
2022/08/18 05:02:07;;;;;;;;;;;25.00;99.90;;;;;;5079531;28;20046;-75
2022/08/18 05:04:33;;;;;;;;;;;25.00;99.90;;;;;;5062563;28;19916;-75
2022/08/18 05:06:59;;;;;;;;;;;25.10;99.90;;;;;;5080577;28;19923;-74
2022/08/18 05:09:25;;;;;;;;;;;25.20;99.90;;;;;;5076489;28;19958;-75
2022/08/18 05:11:51;;;;;;;;;;;25.20;99.90;;;;;;5081440;28;19970;-71
2022/08/18 05:14:17;;;;;;;;;;;25.30;99.90;;;;;;5077985;28;19919;-67
2022/08/18 05:16:42;;;;;;;;;;;25.40;99.90;;;;;;5078781;28;19954;-67
2022/08/18 05:19:10;;;;;;;;;;;25.40;99.90;;;;;;5079201;28;19924;-68
2022/08/18 05:21:36;;;;;;;;;;;25.40;99.90;;;;;;5078121;28;20273;-68
2022/08/18 05:24:03;;;;;;;;;;;25.30;99.90;;;;;;5082469;28;20304;-69
2022/08/18 05:26:28;;;;;;;;;;;25.40;99.90;;;;;;5079491;28;20009;-69
2022/08/18 05:28:54;;;;;;;;;;;25.50;99.90;;;;;;5065793;28;20026;-68
2022/08/18 05:31:21;;;;;;;;;;;25.50;99.90;;;;;;5078938;28;19920;-69
2022/08/18 05:33:47;;;;;;;;;;;25.50;99.90;;;;;;5079926;28;20424;-69
2022/08/18 05:36:16;;;;;;;;;;;25.60;99.90;;;;;;5076544;28;19916;-68
2022/08/18 05:38:53;;;;;;;;;;;25.60;99.90;;;;;;5063133;28;20393;-69
2022/08/18 05:41:21;;;;;;;;;;;25.60;99.90;;;;;;5077412;28;19924;-70
2022/08/18 05:43:47;;;;;;;;;;;25.60;99.90;;;;;;5081493;28;19913;-70
2022/08/18 05:46:13;;;;;;;;;;;25.70;99.90;;;;;;5089234;28;20377;-71
2022/08/18 05:48:39;;;;;;;;;;;25.80;99.90;;;;;;5099701;28;19947;-67
2022/08/18 05:51:11;;;;;;;;;;;26.00;99.90;;;;;;5090684;28;20292;-67
2022/08/18 05:59:09;;;;;;;;;;;26.20;99.90;;;;;;5094935;28;20273;-68
2022/08/18 06:01:40;;;;;;;;;;;26.30;99.90;;;;;;5092381;28;19916;-68
2022/08/18 06:04:21;;;;;;;;;;;26.30;99.90;;;;;;5085187;28;19942;-69
2022/08/18 06:06:48;;;;;;;;;;;26.50;99.90;;;;;;5096629;28;19918;-69
2022/08/18 06:09:16;;;;;;;;;;;26.70;99.90;;;;;;5091550;28;19931;-69
2022/08/18 06:11:43;;;;;;;;;;;26.80;99.90;;;;;;5094880;28;20111;-68
2022/08/18 06:14:08;;;;;;;;;;;26.80;99.90;;;;;;5112409;28;19995;-70
2022/08/18 06:16:52;;;;;;;;;;;26.80;99.90;;;;;;5112708;28;20341;-69
2022/08/18 06:19:17;;;;;;;;;;;26.90;99.90;;;;;;5112933;28;20356;-67
2022/08/18 06:21:43;;;;;;;;;;;27.00;99.90;;;;;;5112060;28;20002;-69
2022/08/18 06:24:11;;;;;;;;;;;27.00;99.90;;;;;;5103887;28;19995;-69
2022/08/18 06:26:39;;;;;;;;;;;27.10;99.90;;;;;;5094262;28;20007;-68
2022/08/18 06:29:26;;;;;;;;;;;27.20;99.90;;;;;;5092015;28;20374;-69
2022/08/18 06:31:55;;;;;;;;;;;27.30;99.90;;;;;;5091589;28;20351;-69
2022/08/18 06:34:27;;;;;;;;;;;27.40;99.90;;;;;;5100653;28;20371;-68
2022/08/18 06:37:08;;;;;;;;;;;27.50;99.90;;;;;;5091883;28;19938;-68
2022/08/18 06:39:35;;;;;;;;;;;27.60;99.90;;;;;;5073416;28;20123;-69
2022/08/18 06:42:04;;;;;;;;;;;27.60;99.90;;;;;;5091991;28;19923;-71
2022/08/18 06:44:39;;;;;;;;;;;27.60;99.90;;;;;;5083664;28;19912;-71
2022/08/18 06:47:17;;;;;;;;;;;27.70;99.90;;;;;;5091461;28;20288;-70
2022/08/18 06:49:42;;;;;;;;;;;27.90;99.90;;;;;;5091631;28;20381;-70
2022/08/18 06:52:23;;;;;;;;;;;28.30;99.90;;;;;;5091552;28;19938;-68
2022/08/18 06:54:49;;;;;;;;;;;28.40;99.90;;;;;;5107719;28;19972;-70
2022/08/18 06:57:24;;;;;;;;;;;28.50;99.90;;;;;;5111975;28;19915;-69
2022/08/18 07:00:12;;;;;;;;;;;28.60;99.90;;;;;;5111812;28;19912;-69
2022/08/18 07:02:40;;;;;;;;;;;28.70;99.90;;;;;;5110908;28;19914;-69
2022/08/18 07:05:24;;;;;;;;;;;29.00;99.90;;;;;;5112559;28;19950;-70
2022/08/18 07:08:09;;;;;;;;;;;29.00;99.90;;;;;;5112835;28;19907;-70
2022/08/18 07:10:36;;;;;;;;;;;28.80;99.90;;;;;;5094905;28;20045;-69
2022/08/18 07:13:05;;;;;;;;;;;28.70;99.90;;;;;;5114697;28;19908;-71
2022/08/18 07:15:31;;;;;;;;;;;28.70;99.90;;;;;;5112142;28;19912;-70
2022/08/18 07:18:03;;;;;;;;;;;28.70;99.90;;;;;;5111846;28;19915;-69
2022/08/18 07:20:29;;;;;;;;;;;28.80;99.90;;;;;;5112044;28;19912;-70
2022/08/18 07:22:57;;;;;;;;;;;28.60;99.90;;;;;;5112018;28;20002;-70
2022/08/18 07:25:43;;;;;;;;;;;28.30;99.90;;;;;;5111592;28;19914;-70
2022/08/18 07:28:47;;;;;;;;;;;28.20;99.90;;;;;;5111683;28;19915;-71
2022/08/18 07:31:18;;;;;;;;;;;28.20;99.90;;;;;;5048573;28;20021;-69
2022/08/18 07:33:56;;;;;;;;;;;28.20;99.90;;;;;;5048551;28;19939;-69
2022/08/18 07:36:23;;;;;;;;;;;28.10;99.90;;;;;;5084795;28;19988;-72
2022/08/18 07:38:59;;;;;;;;;;;28.00;99.90;;;;;;5093338;28;19908;-70
2022/08/18 07:41:26;;;;;;;;;;;28.10;99.90;;;;;;5112153;28;20336;-69
2022/08/18 07:43:59;;;;;;;;;;;28.20;99.90;;;;;;5111893;28;19912;-70
2022/08/18 07:46:34;;;;;;;;;;;28.30;99.90;;;;;;5111526;28;19911;-68
2022/08/18 07:49:00;;;;;;;;;;;28.30;99.90;;;;;;5111870;28;20388;-69
2022/08/18 07:51:42;;;;;;;;;;;28.40;99.90;;;;;;5111792;28;19920;-69
2022/08/18 07:54:16;;;;;;;;;;;28.60;99.90;;;;;;5111188;28;20011;-68
2022/08/18 07:56:42;;;;;;;;;;;28.70;99.90;;;;;;5111247;28;19965;-68
2022/08/18 07:59:10;;;;;;;;;;;29.00;99.90;;;;;;5111003;28;19908;-69
2022/08/18 08:01:42;;;;;;;;;;;29.30;99.90;;;;;;5111283;28;20364;-69
2022/08/18 08:04:18;;;;;;;;;;;29.60;99.90;;;;;;5111136;28;19915;-70
2022/08/18 08:06:48;;;;;;;;;;;29.80;99.90;;;;;;5110926;28;19908;-68
2022/08/18 08:09:21;;;;;;;;;;;29.80;99.90;;;;;;5111210;28;19915;-70
2022/08/18 08:11:47;;;;;;;;;;;29.90;99.90;;;;;;5110957;28;19907;-69
2022/08/18 08:14:25;;;;;;;;;;;29.80;99.90;;;;;;5110992;28;19908;-69
2022/08/18 08:17:03;;;;;;;;;;;29.70;99.90;;;;;;5110800;28;19973;-66
2022/08/18 08:19:34;;;;;;;;;;;29.60;99.90;;;;;;5110743;28;19908;-69
2022/08/18 08:22:07;;;;;;;;;;;29.70;99.90;;;;;;5110603;28;19920;-70
2022/08/18 08:24:40;;;;;;;;;;;29.60;99.90;;;;;;5110410;28;19984;-68
2022/08/18 08:27:24;;;;;;;;;;;29.50;99.90;;;;;;5110855;28;20027;-71
2022/08/18 08:30:19;;;;;;;;;;;29.30;99.90;;;;;;5110737;28;20063;-70
2022/08/18 08:33:03;;;;;;;;;;;29.10;99.90;;;;;;5078908;28;19907;-69
2022/08/18 08:35:40;;;;;;;;;;;28.90;99.90;;;;;;5110694;28;19988;-69
2022/08/18 08:38:11;;;;;;;;;;;28.90;99.90;;;;;;5091895;28;20451;-68
2022/08/18 08:40:39;;;;;;;;;;;29.10;99.90;;;;;;5110977;28;19943;-68
2022/08/18 08:43:10;;;;;;;;;;;29.30;99.90;;;;;;5110759;28;19944;-72
2022/08/18 08:45:38;;;;;;;;;;;29.60;99.90;;;;;;5110700;28;19914;-69
2022/08/18 08:48:06;;;;;;;;;;;29.80;99.90;;;;;;5110896;28;19939;-70
2022/08/18 08:50:34;;;;;;;;;;;30.10;99.90;;;;;;5115032;28;20262;-70
2022/08/18 08:53:05;;;;;;;;;;;30.10;99.90;;;;;;5097272;28;19912;-69
2022/08/18 08:55:32;;;;;;;;;;;30.10;99.90;;;;;;5115185;28;19912;-70
2022/08/18 08:58:17;;;;;;;;;;;30.10;99.90;;;;;;5115721;28;19912;-69
2022/08/18 09:00:43;;;;;;;;;;;30.10;99.90;;;;;;5114744;28;20002;-70
2022/08/18 09:03:12;;;;;;;;;;;30.40;99.90;;;;;;5114553;28;19908;-69
2022/08/18 09:05:42;;;;;;;;;;;30.40;99.90;;;;;;5114491;28;19908;-69
2022/08/18 09:08:22;;;;;;;;;;;30.70;99.90;;;;;;5114341;28;19908;-69
2022/08/18 09:11:07;;;;;;;;;;;30.70;99.90;;;;;;5114463;28;20325;-70
2022/08/18 09:13:38;;;;;;;;;;;30.90;99.90;;;;;;5114286;28;19908;-71
2022/08/18 09:16:04;;;;;;;;;;;30.40;99.90;;;;;;5113622;28;19995;-69
2022/08/18 09:18:44;;;;;;;;;;;30.00;99.90;;;;;;5114516;28;20415;-70
2022/08/18 09:21:14;;;;;;;;;;;29.80;99.90;;;;;;5114266;28;19915;-70
2022/08/18 09:23:43;;;;;;;;;;;29.70;99.90;;;;;;5114227;28;19927;-69
2022/08/18 09:26:23;;;;;;;;;;;29.80;99.90;;;;;;5114153;28;19908;-71
2022/08/18 09:28:57;;;;;;;;;;;29.80;99.90;;;;;;5095295;28;19961;-69
2022/08/18 09:31:23;;;;;;;;;;;29.80;99.90;;;;;;5113706;28;19927;-69
2022/08/18 09:33:52;;;;;;;;;;;29.60;99.90;;;;;;5113878;28;19915;-68
2022/08/18 09:36:29;;;;;;;;;;;29.40;99.90;;;;;;5113180;28;19911;-70
2022/08/18 09:41:46;;;;;;;;;;;28.80;99.90;;;;;;5113421;28;20363;-70
2022/08/18 09:44:13;;;;;;;;;;;28.50;99.90;;;;;;5113308;28;20002;-73
2022/08/18 09:46:41;;;;;;;;;;;28.50;99.90;;;;;;5114158;28;19908;-69
2022/08/18 09:49:22;;;;;;;;;;;28.50;99.90;;;;;;5113774;28;19908;-70
2022/08/18 09:51:49;;;;;;;;;;;28.40;99.90;;;;;;5113366;28;20262;-70
2022/08/18 09:54:17;;;;;;;;;;;28.50;99.90;;;;;;5094767;28;20363;-69
2022/08/18 09:56:47;;;;;;;;;;;28.60;99.90;;;;;;5113000;28;20375;-69
2022/08/18 09:59:33;;;;;;;;;;;28.70;99.90;;;;;;5113083;28;19930;-70
2022/08/18 10:02:10;;;;;;;;;;;28.80;99.90;;;;;;5112229;28;19912;-69
2022/08/18 10:04:52;;;;;;;;;;;28.80;99.90;;;;;;5112807;28;20322;-68
2022/08/18 10:07:35;;;;;;;;;;;28.90;99.90;;;;;;5095385;28;19908;-68
2022/08/18 10:10:41;;;;;;;;;;;28.70;99.90;;;;;;5113284;28;19959;-72
2022/08/18 10:13:06;;;;;;;;;;;28.70;99.90;;;;;;5050300;28;20441;-71
2022/08/18 10:15:36;;;;;;;;;;;28.90;99.90;;;;;;5050035;28;19908;-75
2022/08/18 10:18:02;;;;;;;;;;;28.90;99.90;;;;;;5081920;28;19986;-71
2022/08/18 10:20:57;;;;;;;;;;;29.00;99.90;;;;;;5113211;28;20022;-71
2022/08/18 10:23:41;;;;;;;;;;;29.10;99.90;;;;;;5080993;28;19919;-70
2022/08/18 10:26:26;;;;;;;;;;;29.30;99.90;;;;;;5112912;28;19915;-71
2022/08/18 10:28:53;;;;;;;;;;;29.50;99.90;;;;;;5128141;27;19914;-69
2022/08/18 10:31:19;;;;;;;;;;;29.80;99.90;;;;;;5112971;28;19914;-71
2022/08/18 10:33:56;;;;;;;;;;;30.20;99.90;;;;;;5113330;28;19907;-72
2022/08/18 10:36:34;;;;;;;;;;;30.50;99.90;;;;;;5113041;28;20002;-71
2022/08/18 10:39:03;;;;;;;;;;;30.60;99.90;;;;;;5113946;28;20048;-72
2022/08/18 10:41:30;;;;;;;;;;;30.70;99.90;;;;;;5112184;28;20049;-69
2022/08/18 10:43:56;;;;;;;;;;;31.00;99.90;;;;;;5111871;28;19995;-69
2022/08/18 10:46:24;;;;;;;;;;;31.20;99.90;;;;;;5111902;28;19912;-69
2022/08/18 10:49:01;;;;;;;;;;;31.10;99.90;;;;;;5111994;28;19908;-69
2022/08/18 10:51:37;;;;;;;;;;;30.90;99.90;;;;;;5127953;27;19979;-69
2022/08/18 10:54:10;;;;;;;;;;;30.60;99.90;;;;;;5112473;28;19915;-71
2022/08/18 10:56:46;;;;;;;;;;;30.30;99.90;;;;;;5111989;28;20353;-69
2022/08/18 10:59:32;;;;;;;;;;;30.00;99.90;;;;;;5093411;28;19912;-71
2022/08/18 11:01:58;;;;;;;;;;;29.90;99.90;;;;;;5111807;28;19912;-70
2022/08/18 11:04:33;;;;;;;;;;;29.70;99.90;;;;;;5111684;28;19908;-69
2022/08/18 11:07:04;;;;;;;;;;;29.60;99.90;;;;;;5099393;28;19912;-70
2022/08/18 11:09:30;;;;;;;;;;;29.40;99.90;;;;;;5097597;28;20003;-70
2022/08/18 11:11:57;;;;;;;;;;;29.40;99.90;;;;;;5090933;28;19940;-69
2022/08/18 11:14:25;;;;;;;;;;;29.30;99.90;;;;;;5090559;28;19916;-70
2022/08/18 11:16:51;;;;;;;;;;;29.20;99.90;;;;;;5095693;28;20301;-70
2022/08/18 11:19:17;;;;;;;;;;;28.90;99.90;;;;;;5090531;28;20050;-69
2022/08/18 11:21:45;;;;;;;;;;;28.70;99.90;;;;;;5090520;28;19927;-68
2022/08/18 11:24:16;;;;;;;;;;;28.60;99.90;;;;;;5090974;28;19916;-69
2022/08/18 11:26:44;;;;;;;;;;;28.60;99.90;;;;;;5090964;28;19994;-71
2022/08/18 11:29:22;;;;;;;;;;;28.50;99.90;;;;;;5090969;28;19915;-67
2022/08/18 11:32:00;;;;;;;;;;;28.40;99.90;;;;;;5090900;28;19995;-69
2022/08/18 11:34:45;;;;;;;;;;;28.20;99.90;;;;;;5091131;28;20010;-71
2022/08/18 11:37:26;;;;;;;;;;;28.20;99.90;;;;;;5079791;28;19914;-72
2022/08/18 11:39:53;;;;;;;;;;;28.10;99.90;;;;;;5090722;28;19916;-71
2022/08/18 11:42:25;;;;;;;;;;;28.00;99.90;;;;;;5090523;28;19908;-72
2022/08/18 11:44:52;;;;;;;;;;;27.90;99.90;;;;;;5090603;28;19912;-71
2022/08/18 11:47:20;;;;;;;;;;;27.90;99.90;;;;;;5090935;28;19908;-73
2022/08/18 11:49:55;;;;;;;;;;;27.90;99.90;;;;;;5090835;28;19913;-71
2022/08/18 11:52:28;;;;;;;;;;;27.80;99.90;;;;;;5072352;28;19912;-71
2022/08/18 11:55:01;;;;;;;;;;;27.70;99.90;;;;;;5090382;28;20048;-72
2022/08/18 11:57:28;;;;;;;;;;;27.10;99.90;;;;;;5090762;28;19989;-71
2022/08/18 11:59:55;;;;;;;;;;;26.60;99.90;;;;;;5091053;28;19966;-71
2022/08/18 12:02:23;;;;;;;;;;;25.60;99.90;;;;;;5072647;28;20004;-70
2022/08/18 12:04:51;;;;;;;;;;;23.60;99.90;;;;;;5090480;28;19935;-71
2022/08/18 12:07:25;;;;;;;;;;;22.60;99.90;;;;;;5090417;28;19908;-72
2022/08/18 12:10:11;;;;;;;;;;;22.20;99.90;;;;;;5090859;28;19912;-70
2022/08/18 12:12:44;;;;;;;;;;;21.90;99.90;;;;;;5090384;28;20011;-70
2022/08/18 12:15:12;;;;;;;;;;;21.70;99.90;;;;;;5069989;28;19920;-71
2022/08/18 12:17:38;;;;;;;;;;;21.80;99.90;;;;;;5086965;28;20356;-70
2022/08/18 12:20:10;;;;;;;;;;;22.10;99.90;;;;;;5090211;28;19984;-69
2022/08/18 12:22:40;;;;;;;;;;;22.10;99.90;;;;;;5080716;28;19923;-70
2022/08/18 12:25:07;;;;;;;;;;;22.20;99.90;;;;;;5075365;28;19916;-69
2022/08/18 12:27:33;;;;;;;;;;;22.40;99.90;;;;;;5094244;28;19920;-70
2022/08/18 12:30:00;;;;;;;;;;;22.40;99.90;;;;;;5094380;28;20366;-69
2022/08/18 12:32:27;;;;;;;;;;;22.60;99.90;;;;;;5091406;28;20381;-69
2022/08/18 12:34:52;;;;;;;;;;;22.60;99.90;;;;;;5083889;28;20003;-71
2022/08/18 12:37:20;;;;;;;;;;;22.30;99.90;;;;;;5092384;28;19999;-73
2022/08/18 12:39:46;;;;;;;;;;;21.90;99.90;;;;;;5078821;28;19915;-70
2022/08/18 12:42:11;;;;;;;;;;;21.80;99.90;;;;;;5073730;28;19919;-69
2022/08/18 12:44:37;;;;;;;;;;;22.10;99.90;;;;;;5097370;28;19912;-70
2022/08/18 12:47:06;;;;;;;;;;;22.30;99.90;;;;;;5104979;28;19913;-70
2022/08/18 12:49:32;;;;;;;;;;;22.40;99.90;;;;;;5093168;28;19912;-68
2022/08/18 12:51:58;;;;;;;;;;;22.40;99.90;;;;;;5098626;28;20229;-70
2022/08/18 12:54:24;;;;;;;;;;;22.40;99.90;;;;;;5094509;28;20373;-69
2022/08/18 12:56:50;;;;;;;;;;;22.60;99.90;;;;;;5094119;28;19919;-69
2022/08/18 12:59:17;;;;;;;;;;;22.70;99.90;;;;;;5094948;28;19916;-69
2022/08/18 13:01:43;;;;;;;;;;;22.80;99.90;;;;;;5106706;28;20353;-70
2022/08/18 13:04:08;;;;;;;;;;;23.00;99.90;;;;;;5095484;28;20995;-71
2022/08/18 13:06:36;;;;;;;;;;;23.20;99.90;;;;;;5109724;28;20324;-72
2022/08/18 13:09:02;;;;;;;;;;;23.40;99.90;;;;;;5095898;28;19908;-69
2022/08/18 13:11:28;;;;;;;;;;;23.70;99.90;;;;;;5114545;28;19998;-68
2022/08/18 13:13:54;;;;;;;;;;;24.00;99.90;;;;;;5114249;28;20431;-69
2022/08/18 13:16:20;;;;;;;;;;;24.30;99.90;;;;;;5089991;28;19965;-70
2022/08/18 13:18:46;;;;;;;;;;;24.50;99.90;;;;;;5077896;28;19915;-69
2022/08/18 13:21:13;;;;;;;;;;;24.70;99.90;;;;;;5074625;28;19920;-69
2022/08/18 13:23:39;;;;;;;;;;;25.00;99.90;;;;;;5092171;28;19915;-71
2022/08/18 13:26:05;;;;;;;;;;;25.30;99.90;;;;;;5074141;28;20246;-70
2022/08/18 13:28:31;;;;;;;;;;;25.60;99.90;;;;;;5093406;28;19916;-70
2022/08/18 13:30:57;;;;;;;;;;;25.80;99.90;;;;;;5093128;28;19908;-68
2022/08/18 13:33:23;;;;;;;;;;;26.10;99.90;;;;;;5075118;28;20018;-69
2022/08/18 13:35:49;;;;;;;;;;;25.90;99.90;;;;;;5107196;28;19911;-70
2022/08/18 13:38:19;;;;;;;;;;;25.90;99.90;;;;;;5073370;28;19915;-69
2022/08/18 13:40:48;;;;;;;;;;;25.90;99.90;;;;;;5073439;28;20332;-70
2022/08/18 13:43:15;;;;;;;;;;;25.80;99.90;;;;;;5083334;28;19961;-70
2022/08/18 13:45:43;;;;;;;;;;;25.80;99.90;;;;;;5104463;28;20348;-71
2022/08/18 13:48:09;;;;;;;;;;;25.60;99.90;;;;;;5093364;28;19931;-71
2022/08/18 13:50:37;;;;;;;;;;;25.60;99.90;;;;;;5095297;28;19911;-70
2022/08/18 13:53:03;;;;;;;;;;;25.40;99.90;;;;;;5113645;28;20360;-68
2022/08/18 13:55:29;;;;;;;;;;;25.40;99.90;;;;;;5105529;28;19981;-69
2022/08/18 13:57:54;;;;;;;;;;;25.50;99.90;;;;;;5097650;28;19915;-70
2022/08/18 14:00:21;;;;;;;;;;;25.70;99.90;;;;;;5089922;28;19935;-71
2022/08/18 14:02:47;;;;;;;;;;;25.80;99.90;;;;;;5074714;28;19912;-69
2022/08/18 14:05:13;;;;;;;;;;;25.90;99.90;;;;;;5109501;28;20500;-69
2022/08/18 14:07:38;;;;;;;;;;;26.10;99.90;;;;;;5100034;28;19967;-70
2022/08/18 14:10:07;;;;;;;;;;;26.40;99.90;;;;;;5088689;28;20310;-69
2022/08/18 14:12:34;;;;;;;;;;;26.80;99.90;;;;;;5092424;28;19943;-69
2022/08/18 14:14:59;;;;;;;;;;;26.90;99.90;;;;;;5076106;28;19912;-71
2022/08/18 14:17:25;;;;;;;;;;;27.10;99.90;;;;;;5077092;28;19920;-68
2022/08/18 14:28:04;;;;;;;;;;;27.50;99.90;;;;;;5094725;28;19966;-71
2022/08/18 14:30:30;;;;;;;;;;;27.50;99.90;;;;;;5092800;28;19935;-69
2022/08/18 14:32:56;;;;;;;;;;;27.50;99.90;;;;;;5086499;28;19916;-68
2022/08/18 14:35:22;;;;;;;;;;;27.60;99.90;;;;;;5087444;28;19948;-69
2022/08/18 14:37:48;;;;;;;;;;;27.80;99.90;;;;;;5091077;28;19958;-70
2022/08/18 14:40:14;;;;;;;;;;;27.80;99.90;;;;;;5088494;28;19916;-70
2022/08/18 14:42:41;;;;;;;;;;;27.90;99.90;;;;;;5094274;28;19919;-70
2022/08/18 14:45:07;;;;;;;;;;;28.20;99.90;;;;;;5083593;28;19957;-69
2022/08/18 14:47:33;;;;;;;;;;;28.10;99.90;;;;;;5096656;28;19911;-72
2022/08/18 14:49:59;;;;;;;;;;;28.40;99.90;;;;;;5084059;28;19935;-69
2022/08/18 14:52:26;;;;;;;;;;;28.70;99.90;;;;;;5106524;28;20042;-70
2022/08/18 14:54:52;;;;;;;;;;;28.80;99.90;;;;;;5085823;28;20010;-69